Cairns, Queensland

6:53 AM AEST on August 30, 2016 (GMT +1000)
Cairns International | | Change Station

Elev 10 ft 16.87 °S, 145.75 °E | Updated 23 minutes ago

Mostly Cloudy
Mostly Cloudy
72 °F
Feels Like 72 °F
N
8
Wind Variable Wind from SSE

Today
High -- | Low -- °F
--% Chance of Precip.
Yesterday
High -- | Low -- °F
Precip. -- in
Pressure 30.09 in
Visibility 6.2 miles
Clouds Few 2500 ft
Scattered Clouds 4500 ft
Mostly Cloudy 6500 ft
Dew Point 63 °F
Humidity 73%
Rainfall 0.00 in
Snow Depth Not available.
6:25 AM 6:10 PM
Waning Crescent, 7% visible
METAR YBCS 292030Z 16007KT 9999 FEW025 SCT045 BKN065 22/17 Q1019 NOSIG
Pressure 30.09 in
Visibility 6.2 miles
Clouds Few 2500 ft
Scattered Clouds 4500 ft
Mostly Cloudy 6500 ft
Dew Point 63 °F
Humidity 73%
Rainfall 0.00 in
Snow Depth Not available.
6:25 AM 6:10 PM
Waning Crescent, 7% visible
METAR YBCS 292030Z 16007KT 9999 FEW025 SCT045 BKN065 22/17 Q1019 NOSIG

10-Day Weather Forecast

Almanac

Astronomy

Aug. 30, 2016 Rise Set
Actual Time
Civil Twilight
Nautical Twilight
Astronomical Twilight
Moon
Length of Visible Light
Length of Day
Tomorrow will be .
, % of the Moon is Illuminated

Today's Extremes

Country Highs Country Lows

Community

WunderPhotos

Upload Photos

1,935,676 photos uploaded!

WunderBlog® & News

Nearby

Air Quality

  Air Quality AQ Index Pollutant
Not available.

Snow Depth

Station Depth Elevation

Earthquake Activity

City Distance Mag. Time & Date
Minimum magnitude displayed is 2.5.

Coastal Water Temperatures

Place Temperature

Stations

Nearby Weather Stations

Station Location Temp. Windchill Dew Point Humidity Wind Precip. Elev Updated Type